Latest Weather Observations for Gayndah

IDQ60801

Issued at 11:02 pm EST Tuesday 28 January 2020 (issued every 10 minutes, with the page automatically refreshed every 10 minutes)

About weather observations | Map of weather stations | Latest weather observations for QLD | Other Formats
Station Details ID: 039066 Name: GAYNDAH AIRPORT Lat: -25.62 Lon: 151.62 Height: 110.9 m
Data from the previous 72 hours. | See also: Recent months at Gayndah
Date/Time
EST
Temp
°C
App
Temp
°C
Dew
Point
°C
Rel
Hum
%
Delta-T
°C
Wind Press
QNH
hPa
Press
MSL
hPa
Rain since
9am
mm
Dir  Spd
km/h
Gust
km/h
Spd
kts
Gust
kts
28/11:00pm 25.2 27.4 21.1 78 2.7 E 11 13 6 7 1014.6 1013.9 0.6
28/10:30pm 25.4 27.4 21.5 79 2.6 ENE 13 17 7 9 1014.6 1013.9 0.6
28/10:00pm 25.6 27.2 21.5 78 2.7 E 15 20 8 11 1014.5 1013.8 0.6
28/09:30pm 26.1 26.3 21.3 75 3.2 ENE 22 30 12 16 1014.5 1013.8 0.6
28/09:00pm 26.6 28.0 21.8 75 3.2 ENE 17 24 9 13 1014.1 1013.5 0.6
28/08:30pm 26.5 27.8 21.7 75 3.2 ENE 17 22 9 12 1013.6 1013.0 0.6
28/08:00pm 26.7 28.1 21.0 71 3.8 ENE 15 22 8 12 1013.3 1012.7 0.6
28/07:30pm 26.9 28.1 20.7 69 4.1 ENE 15 20 8 11 1012.9 1012.3 0.6
28/07:00pm 26.5 26.9 21.0 72 3.6 ENE 20 28 11 15 1012.8 1012.2 0.6
28/06:30pm 28.6 30.3 20.9 63 5.1 NE 13 17 7 9 1012.3 1011.6 0.6
28/06:00pm 28.8 30.7 21.3 64 5.0 NE 13 17 7 9 1011.7 1011.0 0.6
28/05:30pm 28.4 32.2 21.7 67 4.5 NNE 4 6 2 3 1011.4 1010.7 0.6
28/05:00pm 27.6 31.0 21.6 70 4.0 NNE 6 7 3 4 1011.2 1010.5 0.6
28/04:30pm 27.4 29.0 21.4 70 4.0 NNE 15 20 8 11 1011.1 1010.4 0.6
28/04:00pm 30.0 30.3 20.5 56 6.3 ENE 19 28 10 15 1011.1 1010.4 0.6
28/03:30pm 28.7 29.9 21.5 65 4.8 E 17 24 9 13 1011.2 1010.5 0.6
28/03:00pm 27.7 28.0 20.5 65 4.8 E 19 30 10 16 1011.5 1010.8 0.6
28/02:30pm 29.6 28.0 20.7 58 5.9 ENE 30 39 16 21 1011.8 1011.1 0.6
28/02:12pm 29.8 29.2 20.6 57 6.1 NE 24 41 13 22 1011.6 1010.9 0.6
28/02:00pm 32.1 33.7 20.0 48 8.0 NNE 11 17 6 9 1011.6 1010.9 0.6
28/01:30pm 32.0 33.2 20.6 51 7.6 N 15 20 8 11 1011.9 1011.2 0.4
28/01:00pm 30.1 30.3 20.6 56 6.3 NNE 20 33 11 18 1012.3 1011.6 0.4
28/12:30pm 27.2 28.6 21.9 73 3.6 NNE 17 26 9 14 1012.7 1012.1 0.4
28/12:00pm 31.4 33.5 19.4 49 7.9 ENE 7 17 4 9 1012.6 1012.0 0.0
28/11:30am 32.1 34.3 20.4 50 7.8 E 9 17 5 9 1013.0 1012.4 0.0
28/11:00am 29.8 31.9 20.1 56 6.4 ESE 9 20 5 11 1013.3 1012.7 0.0
28/10:30am 28.3 30.0 20.1 61 5.4 ESE 11 20 6 11 1013.4 1012.8 0.0
28/10:00am 28.7 29.9 19.9 59 5.8 E 13 22 7 12 1013.5 1012.9 0.0
28/09:30am 27.9 30.2 19.9 61 5.2 NE 7 17 4 9 1013.6 1013.0 0.0
28/09:00am 27.4 29.8 19.7 63 5.0 NE 6 17 3 9 1013.5 1012.9 0.0
28/08:30am 27.0 28.8 19.6 64 4.8 ENE 9 15 5 8 1013.5 1012.9 0.0
28/08:00am 26.5 27.8 20.1 68 4.2 ENE 13 20 7 11 1013.4 1012.8 0.0
28/07:30am 26.8 28.1 20.2 67 4.3 E 13 20 7 11 1013.1 1012.5 0.0
28/07:00am 25.7 28.4 20.3 72 3.5 E 6 11 3 6 1012.9 1012.3 0.0
28/06:30am 23.7 27.4 20.0 80 2.4 CALM 0 0 0 0 1012.8 1012.2 0.0
28/06:00am 22.6 25.9 19.9 85 1.7 SSW 2 2 1 1 1012.8 1012.2 0.0
28/05:30am 22.2 25.5 19.2 83 1.9 CALM 0 0 0 0 1012.5 1011.8 0.0
28/05:00am 22.4 25.7 19.2 82 2.0 CALM 0 4 0 2 1012.3 1011.6 0.0
28/04:30am 22.7 25.7 19.3 81 2.2 SSE 2 4 1 2 1012.1 1011.4 0.0
28/04:00am 22.8 25.4 19.2 80 2.3 SSE 4 6 2 3 1012.2 1011.5 0.0
28/03:30am 23.2 25.9 19.4 79 2.4 SSE 4 7 2 4 1012.2 1011.5 0.0
28/03:00am 23.4 26.0 19.3 78 2.6 SSE 4 4 2 2 1012.5 1011.8 0.0
28/02:30am 23.3 26.3 19.2 78 2.6 SE 2 6 1 3 1012.5 1011.8 0.0
28/02:00am 23.1 26.4 19.1 78 2.6 CALM 0 2 0 1 1012.7 1012.1 0.0
28/01:30am 23.2 26.4 18.9 77 2.7 CALM 0 4 0 2 1012.9 1012.3 0.0
28/01:00am 23.4 25.6 18.3 73 3.2 ENE 4 6 2 3 1012.9 1012.3 0.0
28/12:30am 23.5 25.3 18.2 72 3.3 E 6 7 3 4 1013.1 1012.5 0.0
28/12:00am 23.8 25.6 18.2 71 3.5 ENE 6 6 3 3 1013.3 1012.7 0.0
 
Date/Time
EST
Temp
°C
App
Temp
°C
Dew
Point
°C
Rel
Hum
%
Delta-T
°C
Wind Press
QNH
hPa
Press
MSL
hPa
Rain since
9am
mm
Dir  Spd
km/h
Gust
km/h
Spd
kts
Gust
kts
27/11:30pm 24.1 25.9 18.3 70 3.7 ENE 6 6 3 3 1013.5 1012.9 0.0
27/11:00pm 24.4 26.2 18.3 69 3.9 ENE 6 7 3 4 1013.5 1012.9 0.0
27/10:30pm 24.7 26.5 18.4 68 4.0 E 6 9 3 5 1013.8 1013.2 0.0
27/10:00pm 25.0 26.6 18.2 66 4.3 E 7 11 4 6 1013.7 1013.1 0.0
27/09:30pm 25.7 25.6 17.9 62 4.9 ENE 15 20 8 11 1013.7 1013.1 0.0
27/09:00pm 26.1 25.3 18.0 61 5.1 ENE 19 24 10 13 1013.5 1012.9 0.0
27/08:30pm 26.6 26.4 18.5 61 5.2 ENE 17 24 9 13 1013.3 1012.7 0.0
27/08:00pm 27.0 26.0 18.0 58 5.7 ENE 20 26 11 14 1012.8 1012.2 0.0
27/07:30pm 27.7 25.7 17.3 53 6.6 ENE 24 33 13 18 1012.3 1011.6 0.0
27/07:00pm 28.1 28.3 18.5 56 6.2 NE 15 24 8 13 1011.9 1011.2 0.0
27/06:30pm 28.2 28.8 19.4 59 5.7 NNE 15 20 8 11 1011.6 1010.9 0.0
27/06:00pm 28.8 29.1 19.7 58 6.0 NNE 17 28 9 15 1011.2 1010.5 0.0
27/05:30pm 29.4 29.6 19.4 55 6.5 NNE 17 28 9 15 1010.6 1009.9 0.0
27/05:00pm 29.7 29.6 18.8 52 7.1 NNE 17 24 9 13 1010.0 1009.3 0.0
27/04:30pm 30.0 30.4 19.1 52 7.1 NNE 15 22 8 12 1010.1 1009.4 0.0
27/04:00pm 30.0 28.7 19.1 52 7.1 NE 24 32 13 17 1010.0 1009.3 0.0
27/03:30pm 30.7 30.4 17.4 45 8.5 NE 15 22 8 12 1010.2 1009.5 0.0
27/03:00pm 30.9 30.5 17.2 43 8.7 ESE 15 20 8 11 1010.5 1009.8 0.0
27/02:30pm 31.3 31.3 17.2 42 9.0 E 13 20 7 11 1010.6 1009.9 0.0
27/02:00pm 31.6 31.2 17.1 41 9.2 E 15 20 8 11 1011.0 1010.3 0.0
27/01:30pm 32.0 31.8 17.5 42 9.3 NE 15 28 8 15 1011.2 1010.5 0.0
27/01:00pm 31.8 31.7 16.9 40 9.5 ENE 13 26 7 14 1011.6 1010.9 0.0
27/12:30pm 31.5 32.3 17.4 43 9.0 SE 9 20 5 11 1012.0 1011.3 0.0
27/12:00pm 31.8 33.1 18.4 45 8.7 NE 9 15 5 8 1012.4 1011.7 0.0
27/11:30am 30.7 30.9 17.7 45 8.3 ESE 13 20 7 11 1012.8 1012.2 0.0
27/11:00am 30.2 30.3 18.3 49 7.7 E 15 20 8 11 1013.1 1012.5 0.0
27/10:30am 29.9 30.0 18.3 49 7.5 E 15 24 8 13 1013.3 1012.7 0.0
27/10:00am 28.4 28.6 18.5 55 6.4 E 15 20 8 11 1013.5 1012.9 0.0
27/09:30am 27.9 29.2 19.4 60 5.5 E 11 19 6 10 1013.6 1013.0 0.0
27/09:00am 26.9 28.3 19.5 64 4.8 E 11 15 6 8 1013.7 1013.1 0.0
27/08:30am 26.8 27.8 19.4 64 4.8 E 13 20 7 11 1013.7 1013.1 0.0
27/08:00am 26.7 28.1 20.3 68 4.2 ENE 13 19 7 10 1013.7 1013.1 0.0
27/07:30am 25.8 27.4 19.9 70 3.8 E 11 17 6 9 1013.6 1013.0 0.0
27/07:00am 24.8 28.0 20.5 77 2.8 ESE 4 7 2 4 1013.3 1012.7 0.0
27/06:30am 24.1 27.3 20.6 81 2.3 E 4 6 2 3 1012.8 1012.2 0.0
27/06:00am 23.4 26.7 20.7 85 1.8 SE 4 6 2 3 1012.4 1011.7 0.0
27/05:30am 22.6 26.1 20.3 87 1.5 ESE 2 4 1 2 1012.2 1011.5 0.0
27/05:00am 22.9 25.7 20.4 86 1.6 ENE 6 7 3 4 1011.8 1011.1 0.0
27/04:30am 23.3 26.5 20.4 84 1.9 ENE 4 6 2 3 1011.9 1011.2 0.0
27/04:00am 23.9 27.1 20.6 82 2.2 ENE 4 6 2 3 1011.8 1011.1 0.0
27/03:30am 24.0 27.2 20.5 81 2.3 E 4 6 2 3 1011.6 1010.9 0.0
27/03:00am 23.9 26.7 20.4 81 2.3 ENE 6 7 3 4 1011.8 1011.1 0.0
27/02:30am 24.1 26.8 20.6 81 2.3 ENE 7 13 4 7 1012.1 1011.4 0.0
27/02:00am 24.2 27.1 20.7 81 2.3 E 6 7 3 4 1012.5 1011.8 0.0
27/01:30am 24.6 26.9 20.7 79 2.6 ENE 9 13 5 7 1012.6 1012.0 0.0
27/01:00am 24.7 26.6 20.6 78 2.7 E 11 15 6 8 1012.9 1012.3 0.0
27/12:30am 24.8 26.8 20.7 78 2.7 ENE 11 15 6 8 1013.2 1012.6 0.0
27/12:00am 24.9 26.4 20.6 77 2.8 ENE 13 19 7 10 1013.6 1013.0 0.0
 
Date/Time
EST
Temp
°C
App
Temp
°C
Dew
Point
°C
Rel
Hum
%
Delta-T
°C
Wind Press
QNH
hPa
Press
MSL
hPa
Rain since
9am
mm
Dir  Spd
km/h
Gust
km/h
Spd
kts
Gust
kts
26/11:30pm 24.9 27.0 21.0 79 2.6 NE 11 17 6 9 1013.8 1013.2 0.0
26/11:00pm 24.5 27.0 21.0 81 2.3 NE 9 13 5 7 1013.9 1013.3 0.0
26/10:30pm 24.3 27.6 21.4 84 1.9 NE 6 7 3 4 1014.1 1013.5 0.0
26/10:00pm 24.3 27.4 21.4 84 1.9 NE 7 9 4 5 1014.1 1013.5 0.0
26/09:30pm 24.1 27.1 21.2 84 1.9 NE 7 9 4 5 1013.9 1013.3 0.0
26/09:00pm 24.2 26.6 20.9 82 2.2 NE 9 13 5 7 1013.6 1013.0 0.0
26/08:30pm 24.2 25.6 21.1 83 2.0 NE 15 20 8 11 1013.4 1012.8 0.0
26/08:00pm 24.7 26.3 21.4 82 2.2 NE 15 22 8 12 1013.0 1012.4 0.0
26/07:30pm 25.4 26.0 21.1 77 2.8 ENE 19 28 10 15 1012.6 1012.0 0.0
26/07:00pm 25.8 26.4 21.0 75 3.2 ENE 19 24 10 13 1012.3 1011.6 0.0
26/06:30pm 26.0 26.4 20.6 72 3.6 E 19 26 10 14 1012.0 1011.3 0.0
26/06:00pm 26.0 26.2 20.6 72 3.6 E 20 28 11 15 1011.6 1010.9 0.0
26/05:30pm 26.1 25.7 20.9 73 3.4 E 24 32 13 17 1011.4 1010.7 0.0
26/05:00pm 26.4 24.9 20.9 72 3.6 ENE 30 37 16 20 1010.9 1010.2 0.0
26/04:30pm 25.8 24.4 21.2 76 3.1 E 30 39 16 21 1010.8 1010.1 0.0
26/04:00pm 25.9 24.8 21.1 75 3.2 E 28 41 15 22 1011.0 1010.3 0.0
26/03:30pm 28.2 27.6 20.5 63 5.1 E 24 35 13 19 1010.8 1010.1 0.0
26/03:00pm 29.5 29.3 20.6 58 5.9 E 22 37 12 20 1011.0 1010.3 0.0
26/02:54pm 30.1 31.5 20.4 56 6.4 ESE 13 37 7 20 1010.9 1010.2 0.0
26/02:30pm 29.6 31.2 19.9 56 6.4 SE 11 17 6 9 1011.4 1010.7 0.0
26/02:00pm 28.8 29.0 20.5 61 5.5 E 20 28 11 15 1011.6 1010.9 0.0
26/01:30pm 30.0 29.4 20.5 56 6.3 ENE 24 33 13 18 1011.8 1011.1 0.0
26/01:00pm 30.6 30.7 19.9 52 7.1 E 19 30 10 16 1012.2 1011.5 0.0
26/12:30pm 30.4 30.7 20.3 54 6.7 SE 19 32 10 17 1012.6 1012.0 0.0
26/12:00pm 28.9 29.3 20.6 61 5.5 E 19 28 10 15 1013.0 1012.4 0.0
26/11:30am 27.3 28.6 21.6 71 3.8 E 17 24 9 13 1013.1 1012.5 0.0
26/11:00am 29.2 31.5 20.6 59 5.7 ENE 9 17 5 9 1013.3 1012.7 0.0
26/10:30am 27.9 30.9 21.2 67 4.5 NE 7 13 4 7 1013.6 1013.0 0.0
26/10:00am 24.4 26.1 20.9 81 2.3 N 13 22 7 12 1013.9 1013.3 0.0
26/09:30am 26.3 30.6 22.6 80 2.5 ESE 4 11 2 6 1013.8 1013.2 0.0
26/09:00am 24.2 28.3 23.0 93 0.8 SE 6 9 3 5 1014.0 1013.4 2.6
26/08:30am 23.3 24.4 21.9 92 0.9 ENE 19 28 10 15 1013.9 1013.3 2.2
26/08:00am 26.3 28.5 21.1 73 3.5 E 11 15 6 8 1013.6 1013.0 0.2
26/07:30am 25.4 28.5 21.5 79 2.6 ESE 7 13 4 7 1013.5 1012.9 0.2
26/07:00am 24.6 26.9 21.3 82 2.2 E 11 17 6 9 1013.1 1012.5 0.2
26/06:30am 23.9 27.0 21.4 86 1.7 E 7 11 4 6 1013.1 1012.5 0.2
26/06:00am 23.5 26.8 21.8 90 1.1 ENE 7 9 4 5 1013.0 1012.4 0.2
26/05:30am 24.5 27.4 20.6 79 2.6 ENE 6 9 3 5 1012.6 1012.0 0.0
26/05:00am 24.5 27.3 20.4 78 2.7 ESE 6 9 3 5 1012.0 1011.3 0.0
26/04:30am 24.6 27.8 20.5 78 2.7 ESE 4 6 2 3 1011.9 1011.2 0.0
26/04:00am 24.7 27.6 20.6 78 2.7 ESE 6 7 3 4 1011.7 1011.0 0.0
26/03:30am 24.9 27.3 20.8 78 2.7 E 9 11 5 6 1011.5 1010.8 0.0
26/03:00am 25.0 27.5 21.1 79 2.6 E 9 11 5 6 1011.6 1010.9 0.0
26/02:30am 24.7 27.7 21.2 81 2.3 E 7 11 4 6 1011.8 1011.1 0.0
26/02:00am 24.5 27.5 20.8 80 2.4 E 6 7 3 4 1012.0 1011.3 0.0
26/01:30am 24.8 27.6 20.9 79 2.6 E 7 11 4 6 1012.2 1011.5 0.0
26/01:00am 25.1 27.5 20.8 77 2.8 E 9 11 5 6 1012.5 1011.8 0.0
26/12:30am 25.6 27.9 21.3 77 2.9 ENE 11 17 6 9 1012.6 1012.0 0.0
26/12:00am 25.9 28.2 21.3 76 3.1 NE 11 17 6 9 1012.9 1012.3 0.0
 
Date/Time
EST
Temp
°C
App
Temp
°C
Dew
Point
°C
Rel
Hum
%
Delta-T
°C
Wind Press
QNH
hPa
Press
MSL
hPa
Rain since
9am
mm
Dir  Spd
km/h
Gust
km/h
Spd
kts
Gust
kts
25/11:30pm 26.1 28.8 21.3 75 3.2 ENE 9 13 5 7 1013.2 1012.6 0.0

Other formats

Comma delimited format used in spreadsheet applications
http://www.bom.gov.au/fwo/IDQ60801/IDQ60801.95543.axf

JavaScript Object Notation format (JSON) in row-major order
http://www.bom.gov.au/fwo/IDQ60801/IDQ60801.95543.json

Data quality

Most of these data are generated automatically and are frequently updated. Quality checks on data are not normally performed. It is possible for incorrect values to appear. Refer to information at About Latest Weather Observations and please check the disclaimer before using these data.